sensor_id;sensor_type;location;lat;lon;timestamp;pressure;altitude;pressure_sealevel;temperature;humidity
21401;BME280;18038;50.166;18.908;2023-09-30T00:02:52;98334.66;;;14.85;57.88
21401;BME280;18038;50.166;18.908;2023-09-30T00:06:00;98335.47;;;14.85;57.89
21401;BME280;18038;50.166;18.908;2023-09-30T00:09:10;98334.47;;;14.86;57.85
21401;BME280;18038;50.166;18.908;2023-09-30T00:12:18;98336.34;;;14.86;57.86
21401;BME280;18038;50.166;18.908;2023-09-30T00:15:26;98333.47;;;14.81;58.33
21401;BME280;18038;50.166;18.908;2023-09-30T00:18:34;98325.59;;;14.79;57.88
21401;BME280;18038;50.166;18.908;2023-09-30T00:21:42;98336.16;;;14.81;57.89
21401;BME280;18038;50.166;18.908;2023-09-30T00:24:53;98329.34;;;14.78;58.25
21401;BME280;18038;50.166;18.908;2023-09-30T00:28:01;98325.66;;;14.73;58.31
21401;BME280;18038;50.166;18.908;2023-09-30T00:31:09;98318.84;;;14.70;58.33
21401;BME280;18038;50.166;18.908;2023-09-30T00:34:16;98315.09;;;14.71;58.63
21401;BME280;18038;50.166;18.908;2023-09-30T00:37:24;98317.97;;;14.69;58.65
21401;BME280;18038;50.166;18.908;2023-09-30T00:40:35;98307.22;;;14.69;58.12
21401;BME280;18038;50.166;18.908;2023-09-30T00:43:46;98306.59;;;14.74;58.24
21401;BME280;18038;50.166;18.908;2023-09-30T00:46:57;98306.81;;;14.73;58.59
21401;BME280;18038;50.166;18.908;2023-09-30T00:50:19;98307.66;;;14.73;58.35
21401;BME280;18038;50.166;18.908;2023-09-30T00:53:28;98305.56;;;14.75;58.48
21401;BME280;18038;50.166;18.908;2023-09-30T00:56:46;98304.97;;;14.73;58.23
21401;BME280;18038;50.166;18.908;2023-09-30T00:59:57;98305.56;;;14.75;58.55
21401;BME280;18038;50.166;18.908;2023-09-30T01:03:08;98308.25;;;14.75;58.00
21401;BME280;18038;50.166;18.908;2023-09-30T01:06:17;98307.22;;;14.76;57.94
21401;BME280;18038;50.166;18.908;2023-09-30T01:09:36;98308.84;;;14.77;58.32
21401;BME280;18038;50.166;18.908;2023-09-30T01:12:47;98306.56;;;14.81;58.23
21401;BME280;18038;50.166;18.908;2023-09-30T01:15:55;98304.06;;;14.86;57.59
21401;BME280;18038;50.166;18.908;2023-09-30T01:19:03;98297.84;;;14.92;57.31
21401;BME280;18038;50.166;18.908;2023-09-30T01:22:14;98303.41;;;14.97;57.32
21401;BME280;18038;50.166;18.908;2023-09-30T01:25:24;98299.28;;;14.95;57.61
21401;BME280;18038;50.166;18.908;2023-09-30T01:28:32;98310.41;;;14.98;57.49
21401;BME280;18038;50.166;18.908;2023-09-30T01:31:40;98309.59;;;14.98;57.46
21401;BME280;18038;50.166;18.908;2023-09-30T01:34:48;98312.47;;;15.03;57.36
21401;BME280;18038;50.166;18.908;2023-09-30T01:37:57;98313.72;;;15.00;56.79
21401;BME280;18038;50.166;18.908;2023-09-30T01:41:06;98314.09;;;15.04;56.98
21401;BME280;18038;50.166;18.908;2023-09-30T01:44:13;98313.69;;;15.07;56.66
21401;BME280;18038;50.166;18.908;2023-09-30T01:47:21;98311.59;;;15.09;57.09
21401;BME280;18038;50.166;18.908;2023-09-30T01:50:28;98312.81;;;15.13;56.98
21401;BME280;18038;50.166;18.908;2023-09-30T01:53:40;98311.19;;;15.12;56.86
21401;BME280;18038;50.166;18.908;2023-09-30T01:56:47;98309.06;;;15.14;57.31
21401;BME280;18038;50.166;18.908;2023-09-30T01:59:56;98304.31;;;15.16;57.24
21401;BME280;18038;50.166;18.908;2023-09-30T02:03:15;98308.06;;;15.15;57.52
21401;BME280;18038;50.166;18.908;2023-09-30T02:06:23;98300.81;;;15.16;57.57
21401;BME280;18038;50.166;18.908;2023-09-30T02:09:33;98303.69;;;15.14;57.75
21401;BME280;18038;50.166;18.908;2023-09-30T02:12:41;98304.50;;;15.15;57.52
21401;BME280;18038;50.166;18.908;2023-09-30T02:15:49;98301.41;;;15.18;58.08
21401;BME280;18038;50.166;18.908;2023-09-30T02:19:00;98295.19;;;15.17;58.12
21401;BME280;18038;50.166;18.908;2023-09-30T02:22:07;98291.69;;;15.17;58.16
21401;BME280;18038;50.166;18.908;2023-09-30T02:25:19;98296.69;;;15.13;57.80
21401;BME280;18038;50.166;18.908;2023-09-30T02:28:26;98293.09;;;15.19;58.24
21401;BME280;18038;50.166;18.908;2023-09-30T02:31:37;98298.13;;;15.16;57.72
21401;BME280;18038;50.166;18.908;2023-09-30T02:34:45;98287.13;;;15.17;57.62
21401;BME280;18038;50.166;18.908;2023-09-30T02:37:53;98286.63;;;15.27;57.78
21401;BME280;18038;50.166;18.908;2023-09-30T02:41:03;98289.13;;;15.28;57.23
21401;BME280;18038;50.166;18.908;2023-09-30T02:44:12;98290.75;;;15.29;57.16
21401;BME280;18038;50.166;18.908;2023-09-30T02:47:19;98286.81;;;15.32;56.99
21401;BME280;18038;50.166;18.908;2023-09-30T02:50:27;98294.84;;;15.39;57.54
21401;BME280;18038;50.166;18.908;2023-09-30T02:53:36;98300.63;;;15.36;57.24
21401;BME280;18038;50.166;18.908;2023-09-30T02:56:47;98294.06;;;15.31;57.75
21401;BME280;18038;50.166;18.908;2023-09-30T02:59:56;98297.03;;;15.23;57.61
21401;BME280;18038;50.166;18.908;2023-09-30T03:03:06;98294.53;;;15.22;58.29
21401;BME280;18038;50.166;18.908;2023-09-30T03:06:13;98299.09;;;15.21;58.59
21401;BME280;18038;50.166;18.908;2023-09-30T03:09:23;98296.25;;;15.16;59.37
21401;BME280;18038;50.166;18.908;2023-09-30T03:12:33;98294.59;;;15.15;58.93
21401;BME280;18038;50.166;18.908;2023-09-30T03:15:42;98298.31;;;15.14;59.12
21401;BME280;18038;50.166;18.908;2023-09-30T03:18:49;98298.38;;;15.07;60.10
21401;BME280;18038;50.166;18.908;2023-09-30T03:21:57;98301.06;;;15.07;59.59
21401;BME280;18038;50.166;18.908;2023-09-30T03:25:10;98295.06;;;15.05;60.04
21401;BME280;18038;50.166;18.908;2023-09-30T03:28:22;98304.41;;;15.03;60.81
21401;BME280;18038;50.166;18.908;2023-09-30T03:31:29;98300.91;;;14.96;61.16
21401;BME280;18038;50.166;18.908;2023-09-30T03:34:38;98301.59;;;14.91;61.12
21401;BME280;18038;50.166;18.908;2023-09-30T03:37:49;98301.34;;;14.93;60.65
21401;BME280;18038;50.166;18.908;2023-09-30T03:40:57;98304.47;;;14.89;60.99
21401;BME280;18038;50.166;18.908;2023-09-30T03:44:09;98306.53;;;14.94;60.61
21401;BME280;18038;50.166;18.908;2023-09-30T03:47:19;98307.97;;;14.97;60.42
21401;BME280;18038;50.166;18.908;2023-09-30T03:50:27;98318.09;;;14.95;60.56
21401;BME280;18038;50.166;18.908;2023-09-30T03:53:36;98315.41;;;14.95;61.35
21401;BME280;18038;50.166;18.908;2023-09-30T03:56:43;98317.06;;;14.96;62.10
21401;BME280;18038;50.166;18.908;2023-09-30T03:59:54;98318.09;;;14.95;62.27
21401;BME280;18038;50.166;18.908;2023-09-30T04:03:03;98320.63;;;14.89;63.13
21401;BME280;18038;50.166;18.908;2023-09-30T04:06:11;98316.06;;;14.90;63.59
21401;BME280;18038;50.166;18.908;2023-09-30T04:09:18;98319.16;;;14.94;63.49
21401;BME280;18038;50.166;18.908;2023-09-30T04:12:26;98315.84;;;14.85;63.85
21401;BME280;18038;50.166;18.908;2023-09-30T04:15:39;98322.72;;;14.81;64.12
21401;BME280;18038;50.166;18.908;2023-09-30T04:18:47;98327.91;;;14.69;64.31
21401;BME280;18038;50.166;18.908;2023-09-30T04:21:56;98327.50;;;14.72;64.70
21401;BME280;18038;50.166;18.908;2023-09-30T04:25:31;98322.72;;;14.74;64.46
21401;BME280;18038;50.166;18.908;2023-09-30T04:28:38;98329.16;;;14.73;64.55
21401;BME280;18038;50.166;18.908;2023-09-30T04:31:49;98330.53;;;14.82;64.24
21401;BME280;18038;50.166;18.908;2023-09-30T04:34:56;98335.72;;;14.84;64.86
21401;BME280;18038;50.166;18.908;2023-09-30T04:38:05;98329.91;;;14.87;65.05
21401;BME280;18038;50.166;18.908;2023-09-30T04:41:13;98332.81;;;14.92;64.72
21401;BME280;18038;50.166;18.908;2023-09-30T04:44:22;98338.38;;;14.97;65.00
21401;BME280;18038;50.166;18.908;2023-09-30T04:47:34;98335.44;;;14.99;64.66
21401;BME280;18038;50.166;18.908;2023-09-30T04:50:43;98336.06;;;15.01;64.28
21401;BME280;18038;50.166;18.908;2023-09-30T04:53:50;98349.31;;;15.02;63.81
21401;BME280;18038;50.166;18.908;2023-09-30T04:56:59;98341.25;;;14.96;63.47
21401;BME280;18038;50.166;18.908;2023-09-30T05:00:14;98341.06;;;14.97;63.93
21401;BME280;18038;50.166;18.908;2023-09-30T05:03:29;98342.09;;;14.96;63.91
21401;BME280;18038;50.166;18.908;2023-09-30T05:06:37;98344.56;;;14.98;64.39
21401;BME280;18038;50.166;18.908;2023-09-30T05:09:51;98361.09;;;15.01;64.58
21401;BME280;18038;50.166;18.908;2023-09-30T05:13:11;98354.50;;;14.97;64.80
21401;BME280;18038;50.166;18.908;2023-09-30T05:16:19;98359.44;;;15.00;65.06
21401;BME280;18038;50.166;18.908;2023-09-30T05:19:29;98370.84;;;14.96;65.15
21401;BME280;18038;50.166;18.908;2023-09-30T05:22:38;98377.06;;;14.96;65.62
21401;BME280;18038;50.166;18.908;2023-09-30T05:25:48;98376.22;;;14.96;65.82
21401;BME280;18038;50.166;18.908;2023-09-30T05:28:57;98377.44;;;15.00;65.34
21401;BME280;18038;50.166;18.908;2023-09-30T05:32:04;98383.44;;;15.02;65.04
21401;BME280;18038;50.166;18.908;2023-09-30T05:35:16;98391.69;;;15.07;64.94
21401;BME280;18038;50.166;18.908;2023-09-30T05:38:26;98391.03;;;15.11;64.87
21401;BME280;18038;50.166;18.908;2023-09-30T05:41:36;98403.22;;;15.14;64.79
21401;BME280;18038;50.166;18.908;2023-09-30T05:44:45;98411.06;;;15.22;65.53
21401;BME280;18038;50.166;18.908;2023-09-30T05:47:54;98413.72;;;15.29;65.07
21401;BME280;18038;50.166;18.908;2023-09-30T05:51:09;98420.47;;;15.38;64.62
21401;BME280;18038;50.166;18.908;2023-09-30T05:54:19;98418.22;;;15.35;65.47
21401;BME280;18038;50.166;18.908;2023-09-30T05:57:27;98426.47;;;15.40;65.51
21401;BME280;18038;50.166;18.908;2023-09-30T06:00:35;98423.59;;;15.42;65.47
21401;BME280;18038;50.166;18.908;2023-09-30T06:03:43;98427.72;;;15.44;66.66
21401;BME280;18038;50.166;18.908;2023-09-30T06:07:00;98422.44;;;15.56;65.96
21401;BME280;18038;50.166;18.908;2023-09-30T06:10:15;98435.03;;;15.62;66.27
21401;BME280;18038;50.166;18.908;2023-09-30T06:13:23;98431.94;;;15.65;65.66
21401;BME280;18038;50.166;18.908;2023-09-30T06:16:32;98439.16;;;15.65;64.94
21401;BME280;18038;50.166;18.908;2023-09-30T06:19:40;98437.25;;;15.72;64.37
21401;BME280;18038;50.166;18.908;2023-09-30T06:22:50;98436.81;;;15.75;64.79
21401;BME280;18038;50.166;18.908;2023-09-30T06:25:59;98444.06;;;15.74;64.51
21401;BME280;18038;50.166;18.908;2023-09-30T06:29:08;98444.69;;;15.76;64.89
21401;BME280;18038;50.166;18.908;2023-09-30T06:32:16;98445.72;;;15.75;64.70
21401;BME280;18038;50.166;18.908;2023-09-30T06:35:29;98452.16;;;15.74;64.76
21401;BME280;18038;50.166;18.908;2023-09-30T06:38:45;98457.09;;;15.77;64.73
21401;BME280;18038;50.166;18.908;2023-09-30T06:41:54;98457.72;;;15.80;64.79
21401;BME280;18038;50.166;18.908;2023-09-30T06:45:04;98463.09;;;15.80;65.85
21401;BME280;18038;50.166;18.908;2023-09-30T06:48:14;98464.72;;;15.81;65.77
21401;BME280;18038;50.166;18.908;2023-09-30T06:51:29;98462.44;;;15.84;65.74
21401;BME280;18038;50.166;18.908;2023-09-30T06:55:12;98468.59;;;15.98;65.85
21401;BME280;18038;50.166;18.908;2023-09-30T06:58:21;98473.69;;;16.06;65.84
21401;BME280;18038;50.166;18.908;2023-09-30T07:01:29;98474.94;;;16.10;66.37
21401;BME280;18038;50.166;18.908;2023-09-30T07:04:37;98478.47;;;16.04;67.08
21401;BME280;18038;50.166;18.908;2023-09-30T07:07:44;98482.06;;;15.98;67.78
21401;BME280;18038;50.166;18.908;2023-09-30T07:10:55;98484.53;;;15.99;68.65
21401;BME280;18038;50.166;18.908;2023-09-30T07:14:04;98487.66;;;15.96;69.12
21401;BME280;18038;50.166;18.908;2023-09-30T07:17:12;98488.88;;;16.01;68.71
21401;BME280;18038;50.166;18.908;2023-09-30T07:20:20;98500.03;;;16.04;68.51
21401;BME280;18038;50.166;18.908;2023-09-30T07:23:30;98502.72;;;16.04;69.24
21401;BME280;18038;50.166;18.908;2023-09-30T07:26:40;98499.00;;;16.05;70.78
21401;BME280;18038;50.166;18.908;2023-09-30T07:29:48;98501.88;;;16.10;71.54
21401;BME280;18038;50.166;18.908;2023-09-30T07:32:56;98507.34;;;15.97;72.11
21401;BME280;18038;50.166;18.908;2023-09-30T07:36:05;98501.91;;;16.04;73.51
21401;BME280;18038;50.166;18.908;2023-09-30T07:39:19;98511.78;;;15.85;74.38
21401;BME280;18038;50.166;18.908;2023-09-30T07:42:32;98507.63;;;15.75;75.83
21401;BME280;18038;50.166;18.908;2023-09-30T07:45:55;98511.19;;;15.76;76.65
21401;BME280;18038;50.166;18.908;2023-09-30T07:49:04;98511.03;;;15.64;78.07
21401;BME280;18038;50.166;18.908;2023-09-30T07:52:15;98516.22;;;15.59;79.24
21401;BME280;18038;50.166;18.908;2023-09-30T07:55:27;98512.78;;;15.52;79.98
21401;BME280;18038;50.166;18.908;2023-09-30T07:58:37;98517.34;;;15.45;81.46
21401;BME280;18038;50.166;18.908;2023-09-30T08:01:51;98512.16;;;15.50;81.76
21401;BME280;18038;50.166;18.908;2023-09-30T08:05:08;98525.84;;;15.42;82.94
21401;BME280;18038;50.166;18.908;2023-09-30T08:08:24;98530.81;;;15.45;83.68
21401;BME280;18038;50.166;18.908;2023-09-30T08:11:35;98533.50;;;15.45;84.07
21401;BME280;18038;50.166;18.908;2023-09-30T08:14:46;98532.69;;;15.44;84.91
21401;BME280;18038;50.166;18.908;2023-09-30T08:17:55;98534.75;;;15.36;85.76
21401;BME280;18038;50.166;18.908;2023-09-30T08:21:03;98538.53;;;15.28;86.99
21401;BME280;18038;50.166;18.908;2023-09-30T08:24:11;98545.19;;;15.25;88.08
21401;BME280;18038;50.166;18.908;2023-09-30T08:27:22;98548.06;;;15.24;88.12
21401;BME280;18038;50.166;18.908;2023-09-30T08:30:33;98547.06;;;15.11;89.46
21401;BME280;18038;50.166;18.908;2023-09-30T08:33:41;98536.72;;;15.15;89.79
21401;BME280;18038;50.166;18.908;2023-09-30T08:36:52;98537.16;;;15.12;90.04
21401;BME280;18038;50.166;18.908;2023-09-30T08:40:02;98540.03;;;15.10;90.72
21401;BME280;18038;50.166;18.908;2023-09-30T08:43:25;98535.06;;;15.14;91.25
21401;BME280;18038;50.166;18.908;2023-09-30T08:46:47;98538.16;;;15.11;91.21
21401;BME280;18038;50.166;18.908;2023-09-30T08:49:59;98544.16;;;15.13;91.17
21401;BME280;18038;50.166;18.908;2023-09-30T08:53:19;98540.91;;;15.04;91.48
21401;BME280;18038;50.166;18.908;2023-09-30T08:57:00;98540.28;;;15.02;91.84
21401;BME280;18038;50.166;18.908;2023-09-30T09:00:20;98545.84;;;15.01;91.95
21401;BME280;18038;50.166;18.908;2023-09-30T09:03:30;98541.53;;;15.00;92.37
21401;BME280;18038;50.166;18.908;2023-09-30T09:06:41;98542.53;;;14.99;92.22
21401;BME280;18038;50.166;18.908;2023-09-30T09:10:03;98546.88;;;15.06;92.99
21401;BME280;18038;50.166;18.908;2023-09-30T09:13:13;98553.28;;;15.12;92.57
21401;BME280;18038;50.166;18.908;2023-09-30T09:16:20;98543.97;;;15.08;92.74
21401;BME280;18038;50.166;18.908;2023-09-30T09:19:31;98548.97;;;14.98;94.17
21401;BME280;18038;50.166;18.908;2023-09-30T09:22:40;98556.44;;;14.89;94.86
21401;BME280;18038;50.166;18.908;2023-09-30T09:26:06;98557.03;;;14.84;94.75
21401;BME280;18038;50.166;18.908;2023-09-30T09:29:25;98553.31;;;14.79;95.62
21401;BME280;18038;50.166;18.908;2023-09-30T09:32:34;98555.97;;;14.85;95.31
21401;BME280;18038;50.166;18.908;2023-09-30T09:35:51;98562.44;;;14.78;95.83
21401;BME280;18038;50.166;18.908;2023-09-30T09:38:59;98567.16;;;14.82;96.51
21401;BME280;18038;50.166;18.908;2023-09-30T09:42:28;98559.53;;;14.66;97.44
21401;BME280;18038;50.166;18.908;2023-09-30T09:45:52;98566.16;;;14.70;97.74
21401;BME280;18038;50.166;18.908;2023-09-30T09:49:08;98563.69;;;14.75;97.86
21401;BME280;18038;50.166;18.908;2023-09-30T09:52:21;98562.84;;;14.95;97.60
21401;BME280;18038;50.166;18.908;2023-09-30T09:55:36;98566.31;;;15.15;96.47
21401;BME280;18038;50.166;18.908;2023-09-30T09:58:47;98566.91;;;15.17;96.21
21401;BME280;18038;50.166;18.908;2023-09-30T10:01:59;98561.53;;;15.24;95.68
21401;BME280;18038;50.166;18.908;2023-09-30T10:05:08;98568.53;;;15.31;94.99
21401;BME280;18038;50.166;18.908;2023-09-30T10:08:35;98571.44;;;15.30;94.74
21401;BME280;18038;50.166;18.908;2023-09-30T10:11:57;98569.94;;;15.41;95.24
21401;BME280;18038;50.166;18.908;2023-09-30T10:19:07;98573.06;;;15.38;94.70
21401;BME280;18038;50.166;18.908;2023-09-30T10:22:22;98577.19;;;15.47;94.72
21401;BME280;18038;50.166;18.908;2023-09-30T10:25:36;98573.88;;;15.45;94.31
21401;BME280;18038;50.166;18.908;2023-09-30T10:28:46;98582.56;;;15.40;94.42
21401;BME280;18038;50.166;18.908;2023-09-30T10:31:55;98581.72;;;15.46;94.81
21401;BME280;18038;50.166;18.908;2023-09-30T10:35:02;98592.09;;;15.49;94.58
21401;BME280;18038;50.166;18.908;2023-09-30T10:38:38;98581.50;;;15.48;93.80
21401;BME280;18038;50.166;18.908;2023-09-30T10:41:53;98582.53;;;15.53;93.87
21401;BME280;18038;50.166;18.908;2023-09-30T10:45:01;98594.53;;;15.51;93.85
21401;BME280;18038;50.166;18.908;2023-09-30T10:48:35;98595.59;;;15.43;94.13
21401;BME280;18038;50.166;18.908;2023-09-30T10:51:45;98589.00;;;15.39;93.89
21401;BME280;18038;50.166;18.908;2023-09-30T10:54:53;98594.25;;;15.14;94.66
21401;BME280;18038;50.166;18.908;2023-09-30T10:58:04;98595.31;;;15.00;94.56
21401;BME280;18038;50.166;18.908;2023-09-30T11:01:12;98587.66;;;14.83;94.80
21401;BME280;18038;50.166;18.908;2023-09-30T11:04:22;98601.94;;;14.90;94.96
21401;BME280;18038;50.166;18.908;2023-09-30T11:07:31;98599.47;;;14.89;94.21
21401;BME280;18038;50.166;18.908;2023-09-30T11:10:47;98608.13;;;14.84;93.61
21401;BME280;18038;50.166;18.908;2023-09-30T11:13:58;98602.13;;;14.56;94.77
21401;BME280;18038;50.166;18.908;2023-09-30T11:17:08;98612.25;;;14.54;94.66
21401;BME280;18038;50.166;18.908;2023-09-30T11:20:16;98611.84;;;14.30;94.63
21401;BME280;18038;50.166;18.908;2023-09-30T11:23:25;98619.69;;;14.25;94.89
21401;BME280;18038;50.166;18.908;2023-09-30T11:26:33;98619.25;;;14.15;95.03
21401;BME280;18038;50.166;18.908;2023-09-30T11:29:51;98625.81;;;14.06;94.02
21401;BME280;18038;50.166;18.908;2023-09-30T11:32:58;98617.34;;;14.02;92.88
21401;BME280;18038;50.166;18.908;2023-09-30T11:36:07;98632.19;;;13.91;92.43
21401;BME280;18038;50.166;18.908;2023-09-30T11:39:22;98637.78;;;13.96;92.45
21401;BME280;18038;50.166;18.908;2023-09-30T11:42:31;98635.50;;;13.93;92.36
21401;BME280;18038;50.166;18.908;2023-09-30T11:45:41;98637.56;;;13.91;92.07
21401;BME280;18038;50.166;18.908;2023-09-30T11:48:57;98634.19;;;13.83;92.26
21401;BME280;18038;50.166;18.908;2023-09-30T11:52:07;98640.34;;;13.70;91.94
21401;BME280;18038;50.166;18.908;2023-09-30T11:55:16;98634.94;;;13.63;92.10
21401;BME280;18038;50.166;18.908;2023-09-30T11:58:26;98639.25;;;13.57;92.17
21401;BME280;18038;50.166;18.908;2023-09-30T12:01:39;98638.59;;;13.55;92.23
21401;BME280;18038;50.166;18.908;2023-09-30T12:04:55;98626.63;;;13.51;92.61
21401;BME280;18038;50.166;18.908;2023-09-30T12:08:07;98635.16;;;13.62;92.50
21401;BME280;18038;50.166;18.908;2023-09-30T12:11:42;98624.19;;;13.56;93.20
21401;BME280;18038;50.166;18.908;2023-09-30T12:14:51;98624.59;;;13.60;93.11
21401;BME280;18038;50.166;18.908;2023-09-30T12:18:11;98629.38;;;13.65;92.53
21401;BME280;18038;50.166;18.908;2023-09-30T12:21:24;98631.66;;;13.68;92.53
21401;BME280;18038;50.166;18.908;2023-09-30T12:24:32;98632.88;;;13.58;91.71
21401;BME280;18038;50.166;18.908;2023-09-30T12:27:40;98641.09;;;13.57;92.30
21401;BME280;18038;50.166;18.908;2023-09-30T12:30:48;98639.47;;;13.63;91.66
21401;BME280;18038;50.166;18.908;2023-09-30T12:34:00;98642.38;;;13.68;91.59
21401;BME280;18038;50.166;18.908;2023-09-30T12:37:07;98649.22;;;13.70;91.14
21401;BME280;18038;50.166;18.908;2023-09-30T12:40:16;98648.00;;;13.73;90.89
21401;BME280;18038;50.166;18.908;2023-09-30T12:43:28;98646.53;;;13.70;91.12
21401;BME280;18038;50.166;18.908;2023-09-30T12:46:37;98651.06;;;13.70;91.84
21401;BME280;18038;50.166;18.908;2023-09-30T12:49:47;98655.22;;;13.79;91.50
21401;BME280;18038;50.166;18.908;2023-09-30T12:52:56;98655.28;;;13.86;91.64
21401;BME280;18038;50.166;18.908;2023-09-30T12:56:09;98658.63;;;13.88;91.47
21401;BME280;18038;50.166;18.908;2023-09-30T12:59:25;98671.38;;;13.86;91.12
21401;BME280;18038;50.166;18.908;2023-09-30T13:02:33;98665.16;;;13.78;90.08
21401;BME280;18038;50.166;18.908;2023-09-30T13:05:44;98669.69;;;13.78;89.79
21401;BME280;18038;50.166;18.908;2023-09-30T13:08:51;98662.59;;;13.64;89.60
21401;BME280;18038;50.166;18.908;2023-09-30T13:12:00;98657.84;;;13.66;89.20
21401;BME280;18038;50.166;18.908;2023-09-30T13:15:08;98652.44;;;13.94;89.54
21401;BME280;18038;50.166;18.908;2023-09-30T13:18:19;98650.66;;;14.21;88.41
21401;BME280;18038;50.166;18.908;2023-09-30T13:21:29;98652.97;;;14.37;86.95
21401;BME280;18038;50.166;18.908;2023-09-30T13:24:37;98652.38;;;14.49;85.62
21401;BME280;18038;50.166;18.908;2023-09-30T13:27:46;98653.41;;;14.48;85.46
21401;BME280;18038;50.166;18.908;2023-09-30T13:30:54;98662.09;;;14.50;84.70
21401;BME280;18038;50.166;18.908;2023-09-30T13:34:02;98663.97;;;14.62;84.36
21401;BME280;18038;50.166;18.908;2023-09-30T13:37:13;98661.69;;;14.73;83.03
21401;BME280;18038;50.166;18.908;2023-09-30T13:40:20;98669.13;;;14.77;83.28
21401;BME280;18038;50.166;18.908;2023-09-30T13:43:28;98668.16;;;14.92;82.16
21401;BME280;18038;50.166;18.908;2023-09-30T13:46:36;98669.38;;;15.02;81.32
21401;BME280;18038;50.166;18.908;2023-09-30T13:49:45;98664.84;;;15.09;80.41
21401;BME280;18038;50.166;18.908;2023-09-30T13:52:56;98667.06;;;15.19;80.65
21401;BME280;18038;50.166;18.908;2023-09-30T13:56:06;98668.53;;;15.28;80.18
21401;BME280;18038;50.166;18.908;2023-09-30T13:59:14;98660.44;;;15.42;78.98
21401;BME280;18038;50.166;18.908;2023-09-30T14:02:26;98664.72;;;15.56;77.22
21401;BME280;18038;50.166;18.908;2023-09-30T14:05:34;98664.44;;;15.77;77.22
21401;BME280;18038;50.166;18.908;2023-09-30T14:08:45;98659.91;;;15.85;77.26
21401;BME280;18038;50.166;18.908;2023-09-30T14:11:53;98657.41;;;15.90;74.65
21401;BME280;18038;50.166;18.908;2023-09-30T14:15:10;98662.09;;;16.01;73.80
21401;BME280;18038;50.166;18.908;2023-09-30T14:18:44;98659.03;;;15.97;73.91
21401;BME280;18038;50.166;18.908;2023-09-30T14:21:54;98661.31;;;15.81;73.96
21401;BME280;18038;50.166;18.908;2023-09-30T14:25:11;98666.16;;;15.65;74.90
21401;BME280;18038;50.166;18.908;2023-09-30T14:28:19;98665.13;;;15.66;75.14
21401;BME280;18038;50.166;18.908;2023-09-30T14:31:26;98672.31;;;15.79;74.31
21401;BME280;18038;50.166;18.908;2023-09-30T14:34:35;98666.38;;;15.64;72.98
21401;BME280;18038;50.166;18.908;2023-09-30T14:37:43;98664.53;;;15.58;68.21
21401;BME280;18038;50.166;18.908;2023-09-30T14:40:53;98658.34;;;15.44;66.60
21401;BME280;18038;50.166;18.908;2023-09-30T14:44:01;98657.94;;;15.47;66.67
21401;BME280;18038;50.166;18.908;2023-09-30T14:47:18;98651.28;;;15.56;64.65
21401;BME280;18038;50.166;18.908;2023-09-30T14:50:27;98658.53;;;15.49;64.40
21401;BME280;18038;50.166;18.908;2023-09-30T14:53:36;98660.41;;;15.55;63.60
21401;BME280;18038;50.166;18.908;2023-09-30T14:56:46;98674.69;;;15.49;63.19
21401;BME280;18038;50.166;18.908;2023-09-30T14:59:57;98678.22;;;15.43;64.00
21401;BME280;18038;50.166;18.908;2023-09-30T15:03:10;98674.72;;;15.42;64.52
21401;BME280;18038;50.166;18.908;2023-09-30T15:06:37;98675.16;;;15.26;64.63
21401;BME280;18038;50.166;18.908;2023-09-30T15:09:46;98684.91;;;15.20;65.24
21401;BME280;18038;50.166;18.908;2023-09-30T15:12:58;98682.41;;;15.12;65.17
21401;BME280;18038;50.166;18.908;2023-09-30T15:16:15;98677.22;;;15.04;64.88
21401;BME280;18038;50.166;18.908;2023-09-30T15:19:24;98687.19;;;14.97;64.39
21401;BME280;18038;50.166;18.908;2023-09-30T15:22:48;98683.88;;;14.95;64.48
21401;BME280;18038;50.166;18.908;2023-09-30T15:25:57;98693.16;;;14.92;65.05
21401;BME280;18038;50.166;18.908;2023-09-30T15:29:07;98689.41;;;14.86;65.78
21401;BME280;18038;50.166;18.908;2023-09-30T15:32:15;98697.72;;;14.92;65.67
21401;BME280;18038;50.166;18.908;2023-09-30T15:35:27;98704.69;;;14.66;66.70
21401;BME280;18038;50.166;18.908;2023-09-30T15:38:39;98707.78;;;14.56;67.81
21401;BME280;18038;50.166;18.908;2023-09-30T15:41:46;98702.63;;;14.61;67.64
21401;BME280;18038;50.166;18.908;2023-09-30T15:44:57;98700.94;;;14.54;68.35
21401;BME280;18038;50.166;18.908;2023-09-30T15:48:13;98707.97;;;14.48;68.58
21401;BME280;18038;50.166;18.908;2023-09-30T15:51:21;98709.19;;;14.45;69.11
21401;BME280;18038;50.166;18.908;2023-09-30T15:54:29;98701.78;;;14.41;68.43
21401;BME280;18038;50.166;18.908;2023-09-30T15:57:43;98710.16;;;14.24;69.20
21401;BME280;18038;50.166;18.908;2023-09-30T16:00:59;98714.72;;;14.24;69.08
21401;BME280;18038;50.166;18.908;2023-09-30T16:04:08;98711.38;;;14.15;69.83
21401;BME280;18038;50.166;18.908;2023-09-30T16:07:22;98708.84;;;13.94;70.32
21401;BME280;18038;50.166;18.908;2023-09-30T16:11:03;98723.75;;;13.68;71.26
21401;BME280;18038;50.166;18.908;2023-09-30T16:14:10;98733.75;;;13.53;72.32
21401;BME280;18038;50.166;18.908;2023-09-30T16:17:23;98730.63;;;13.49;72.68
21401;BME280;18038;50.166;18.908;2023-09-30T16:20:30;98737.13;;;13.33;73.53
21401;BME280;18038;50.166;18.908;2023-09-30T16:23:39;98735.97;;;13.14;74.26
21401;BME280;18038;50.166;18.908;2023-09-30T16:26:46;98748.19;;;12.96;74.97
21401;BME280;18038;50.166;18.908;2023-09-30T16:29:54;98747.41;;;12.80;75.35
21401;BME280;18038;50.166;18.908;2023-09-30T16:33:04;98746.03;;;12.69;76.14
21401;BME280;18038;50.166;18.908;2023-09-30T16:36:12;98754.59;;;12.58;76.96
21401;BME280;18038;50.166;18.908;2023-09-30T16:39:26;98767.47;;;12.48;77.71
21401;BME280;18038;50.166;18.908;2023-09-30T16:42:45;98765.72;;;12.40;78.04
21401;BME280;18038;50.166;18.908;2023-09-30T16:46:00;98771.09;;;12.25;78.30